createdAt,value
2023-02-06T00:05:05.433Z,178.70
2023-02-06T00:23:10.433Z,148.10
2023-02-06T00:41:06.482Z,116.90
2023-02-06T00:44:23.148Z,108.60
2023-02-06T00:50:23.437Z,163.00
2023-02-06T00:56:37.989Z,141.50
2023-02-06T00:59:41.549Z,162.40
2023-02-06T01:05:28.427Z,157.30
2023-02-06T01:08:49.434Z,171.90
2023-02-06T01:14:52.567Z,179.10
2023-02-06T01:21:04.178Z,145.80
2023-02-06T01:27:11.432Z,156.80
2023-02-06T01:30:26.320Z,148.70
2023-02-06T01:33:51.045Z,151.50
2023-02-06T01:39:54.560Z,138.50
2023-02-06T01:46:05.445Z,128.70
2023-02-06T01:51:46.421Z,138.80
2023-02-06T01:57:39.424Z,138.30
2023-02-06T02:21:34.093Z,149.00
2023-02-06T02:39:50.575Z,128.40
2023-02-06T02:49:18.426Z,121.50
2023-02-06T02:55:13.499Z,109.10
2023-02-06T03:01:19.520Z,119.80
2023-02-06T03:10:22.507Z,131.20
2023-02-06T03:16:24.453Z,122.40
2023-02-06T03:19:49.279Z,121.60
2023-02-06T03:23:05.260Z,129.20
2023-02-06T03:26:13.567Z,142.10
2023-02-06T03:32:05.665Z,128.50
2023-02-06T03:46:49.504Z,125.50
2023-02-06T03:52:43.474Z,108.30
2023-02-06T03:58:33.497Z,112.20
2023-02-06T04:07:24.420Z,111.20
2023-02-06T04:10:56.104Z,103.40
2023-02-06T04:16:57.721Z,104.10
2023-02-06T04:29:17.205Z,102.10
2023-02-06T04:35:37.913Z,116.40
2023-02-06T04:41:25.751Z,97.30
2023-02-06T04:44:53.563Z,96.10
2023-02-06T04:56:38.659Z,92.50
2023-02-06T05:06:02.532Z,95.40
2023-02-06T05:14:56.766Z,103.80
2023-02-06T05:20:49.703Z,99.50
2023-02-06T05:26:33.695Z,118.80
2023-02-06T05:29:56.221Z,118.30
2023-02-06T05:33:10.609Z,113.60
2023-02-06T05:58:16.686Z,110.70
2023-02-06T06:02:47.665Z,176.10
2023-02-06T06:24:16.064Z,118.60
2023-02-06T06:34:41.623Z,189.40
2023-02-06T06:41:09.941Z,243.50
2023-02-06T06:48:28.770Z,183.80
2023-02-06T06:59:33.132Z,181.60
2023-02-06T07:13:35.508Z,203.10
2023-02-06T07:17:02.645Z,187.60
2023-02-06T07:23:34.532Z,123.30
2023-02-06T07:32:46.724Z,291.10
2023-02-06T07:36:11.382Z,242.70
2023-02-06T07:42:17.783Z,174.40
2023-02-06T07:54:42.595Z,193.80
2023-02-06T08:13:14.208Z,89.20
2023-02-06T08:22:30.129Z,98.50
2023-02-06T08:28:59.107Z,117.70
2023-02-06T08:38:47.890Z,110.00
2023-02-06T08:42:12.053Z,114.80
2023-02-06T08:57:18.445Z,96.70
2023-02-06T09:00:44.667Z,88.00
2023-02-06T09:03:44.087Z,81.70
2023-02-06T09:06:58.651Z,82.10
2023-02-06T09:23:23.366Z,93.20
2023-02-06T09:30:08.320Z,78.50
2023-02-06T09:33:52.388Z,88.30
2023-02-06T09:43:07.605Z,117.70
2023-02-06T09:52:07.599Z,85.00
2023-02-06T09:58:43.610Z,67.40
2023-02-06T10:06:03.464Z,80.10
2023-02-06T10:18:56.567Z,65.70
2023-02-06T10:28:43.552Z,76.80
2023-02-06T10:41:42.598Z,121.80
2023-02-06T10:45:19.902Z,109.90
2023-02-06T10:54:37.593Z,93.50
2023-02-06T11:01:23.705Z,104.20
2023-02-06T11:04:43.636Z,70.30
2023-02-06T11:08:04.709Z,70.40
2023-02-06T11:11:19.606Z,99.40
2023-02-06T11:18:00.672Z,83.70
2023-02-06T11:21:33.043Z,84.20
2023-02-06T11:24:58.143Z,77.90
2023-02-06T11:35:01.623Z,65.60
2023-02-06T11:41:47.603Z,75.50
2023-02-06T11:55:13.460Z,71.20
2023-02-06T11:58:54.020Z,80.90
2023-02-06T12:05:53.570Z,69.70
2023-02-06T12:09:04.592Z,70.00
2023-02-06T12:12:22.616Z,59.80
2023-02-06T12:15:46.970Z,79.70
2023-02-06T12:19:08.683Z,63.00
2023-02-06T12:22:28.619Z,70.80
